Time;durP1;ratioP1;P1;durP2;ratioP2;P2;SDS_P1;SDS_P2;PMS_P1;PMS_P2;Temp;Humidity;BMP_temperature;BMP_pressure;BME280_temperature;BME280_humidity;BME280_pressure;Samples;Min_cycle;Max_cycle;Signal;HPM_P1;HPM_P2
2024/02/17 06:55:26;;;;;;;77.20;41.70;;;;;;;1.82;100.00;99667.64;262907;1305;545280;-88
2024/02/17 07:01:29;;;;;;;85.50;40.50;;;;;;;1.94;100.00;99660.53;270460;1282;22421;-88
2024/02/17 07:07:31;;;;;;;85.00;44.50;;;;;;;2.18;100.00;99665.24;270799;1278;150511;-88
2024/02/17 07:13:33;;;;;;;81.30;42.90;;;;;;;2.38;100.00;99664.95;271395;1279;22521;-89
2024/02/17 07:19:35;;;;;;;77.90;42.90;;;;;;;2.59;100.00;99665.80;271469;1276;22320;-88
2024/02/17 07:25:44;;;;;;;87.00;43.90;;;;;;;2.82;100.00;99669.08;271657;1279;22343;-88
2024/02/17 07:31:46;;;;;;;74.60;41.80;;;;;;;3.09;100.00;99672.02;270684;1278;22551;-87
2024/02/17 07:37:48;;;;;;;78.80;42.30;;;;;;;3.38;100.00;99671.11;268555;1279;23802;-87
2024/02/17 07:43:52;;;;;;;76.80;43.40;;;;;;;3.67;100.00;99681.05;269307;1278;22625;-87
2024/02/17 07:49:54;;;;;;;73.70;42.10;;;;;;;3.91;100.00;99682.08;270960;1278;23393;-89
2024/02/17 07:55:57;;;;;;;76.50;41.80;;;;;;;4.14;100.00;99690.39;271306;1278;23014;-88
2024/02/17 08:02:00;;;;;;;72.90;43.50;;;;;;;4.42;100.00;99702.23;269635;1275;22520;-88
2024/02/17 08:08:02;;;;;;;79.70;43.10;;;;;;;4.73;100.00;99705.25;270972;1275;22200;-89
2024/02/17 08:14:04;;;;;;;85.20;49.10;;;;;;;5.07;100.00;99715.23;271899;1275;22516;-89
2024/02/17 08:20:07;;;;;;;74.80;40.50;;;;;;;5.34;100.00;99723.49;271799;1275;22576;-88
2024/02/17 08:26:11;;;;;;;59.90;35.60;;;;;;;5.65;100.00;99726.77;271604;1275;22303;-89
2024/02/17 08:32:14;;;;;;;55.60;32.80;;;;;;;5.92;100.00;99738.95;271773;1275;22240;-89
2024/02/17 08:38:17;;;;;;;54.70;33.20;;;;;;;6.15;100.00;99745.90;272025;1275;22592;-89
2024/02/17 08:44:19;;;;;;;53.90;32.80;;;;;;;6.33;100.00;99753.57;271338;1275;22343;-87
2024/02/17 08:50:22;;;;;;;53.80;32.50;;;;;;;6.46;100.00;99759.31;271920;1275;22324;-88
2024/02/17 08:56:24;;;;;;;48.60;30.50;;;;;;;6.56;100.00;99765.85;271786;1275;23197;-87
2024/02/17 09:02:26;;;;;;;45.00;28.00;;;;;;;6.62;100.00;99772.52;271611;1275;23314;-88
2024/02/17 09:08:28;;;;;;;48.60;28.50;;;;;;;6.67;100.00;99786.94;271958;1275;22351;-87
2024/02/17 09:14:33;;;;;;;50.20;30.40;;;;;;;6.71;100.00;99796.34;271623;1275;22456;-89
2024/02/17 09:20:35;;;;;;;54.90;31.50;;;;;;;6.72;100.00;99803.69;271885;1275;22497;-87
2024/02/17 09:26:37;;;;;;;42.50;28.70;;;;;;;6.73;100.00;99808.31;271978;1275;22342;-89
2024/02/17 09:32:39;;;;;;;47.60;28.80;;;;;;;6.77;100.00;99811.16;271878;1265;22235;-88
2024/02/17 09:38:40;;;;;;;44.40;28.70;;;;;;;6.80;100.00;99816.85;271766;1275;22200;-88
2024/02/17 09:44:42;;;;;;;42.70;27.90;;;;;;;6.82;100.00;99828.27;270178;1275;22276;-87
2024/02/17 09:50:44;;;;;;;40.70;23.00;;;;;;;6.82;100.00;99836.50;271235;1275;23564;-87
2024/02/17 09:56:48;;;;;;;40.60;23.20;;;;;;;6.83;100.00;99842.70;272021;1275;22335;-87
2024/02/17 10:02:51;;;;;;;37.30;22.30;;;;;;;6.88;100.00;99841.57;271934;1275;22333;-87
2024/02/17 10:08:54;;;;;;;33.50;19.70;;;;;;;6.94;100.00;99845.23;271970;1276;23055;-88
2024/02/17 10:14:59;;;;;;;30.20;18.00;;;;;;;7.00;100.00;99847.77;271865;1275;22402;-88
2024/02/17 10:21:01;;;;;;;26.50;16.60;;;;;;;7.05;100.00;99850.23;271789;1275;22451;-87
2024/02/17 10:27:06;;;;;;;26.00;16.50;;;;;;;7.11;100.00;99852.58;271658;1267;22383;-92
2024/02/17 10:33:13;;;;;;;28.70;16.70;;;;;;;7.15;100.00;99853.34;271848;1276;22217;-87
2024/02/17 10:39:16;;;;;;;32.90;19.20;;;;;;;7.18;100.00;99851.98;272230;1272;22404;-88
2024/02/17 10:45:18;;;;;;;29.60;17.20;;;;;;;7.18;100.00;99854.88;272515;1272;22444;-89
2024/02/17 10:51:20;;;;;;;28.10;17.70;;;;;;;7.20;100.00;99856.80;271534;1272;23360;-87
2024/02/17 10:57:22;;;;;;;27.40;17.30;;;;;;;7.21;100.00;99859.42;270866;1272;23154;-88
2024/02/17 11:03:33;;;;;;;29.60;17.20;;;;;;;7.28;100.00;99865.50;271988;1272;22430;-89
2024/02/17 11:09:35;;;;;;;36.00;21.20;;;;;;;7.32;100.00;99871.23;272561;1272;22188;-89
2024/02/17 11:16:00;;;;;;;33.60;21.90;;;;;;;7.34;100.00;99874.95;271943;1272;23070;-89
2024/02/17 11:22:08;;;;;;;37.10;23.30;;;;;;;7.38;100.00;99871.27;272484;1272;22259;-89
2024/02/17 11:28:21;;;;;;;37.30;23.40;;;;;;;7.44;100.00;99866.98;272381;1272;23693;-89
2024/02/17 11:34:24;;;;;;;37.70;24.10;;;;;;;7.53;100.00;99870.17;272477;1272;22298;-89
2024/02/17 11:40:26;;;;;;;36.20;22.30;;;;;;;7.58;100.00;99870.33;272222;1272;23679;-90
2024/02/17 11:46:28;;;;;;;36.60;23.40;;;;;;;7.63;100.00;99873.13;272293;1272;22464;-87
2024/02/17 11:52:30;;;;;;;36.80;23.80;;;;;;;7.67;100.00;99876.30;272260;1272;23767;-90
2024/02/17 11:58:33;;;;;;;38.30;24.00;;;;;;;7.70;100.00;99882.18;272334;1272;22211;-90
2024/02/17 12:04:38;;;;;;;38.70;24.20;;;;;;;7.75;100.00;99886.73;272522;1272;23189;-89
2024/02/17 12:10:39;;;;;;;40.00;23.90;;;;;;;7.78;100.00;99894.23;272355;1272;22327;-88
2024/02/17 12:16:41;;;;;;;38.60;23.30;;;;;;;7.74;100.00;99896.67;272549;1272;22397;-90
2024/02/17 12:22:52;;;;;;;40.10;25.90;;;;;;;7.70;100.00;99895.81;272245;1272;22255;-90
2024/02/17 12:29:02;;;;;;;38.80;25.40;;;;;;;7.71;100.00;99901.31;272278;1272;23525;-89
2024/02/17 12:35:17;;;;;;;51.00;27.30;;;;;;;7.65;100.00;99915.88;272139;1272;23656;-90
2024/02/17 12:41:19;;;;;;;44.30;27.30;;;;;;;7.57;100.00;99917.04;272206;1272;22342;-89
2024/02/17 12:47:24;;;;;;;38.20;25.90;;;;;;;7.53;100.00;99918.16;272540;1272;22328;-90
2024/02/17 12:53:26;;;;;;;41.40;26.20;;;;;;;7.48;100.00;99925.04;272459;1272;22341;-88
2024/02/17 12:59:30;;;;;;;38.10;24.60;;;;;;;7.43;100.00;99926.56;272406;1272;22365;-88
2024/02/17 13:05:32;;;;;;;44.20;25.10;;;;;;;7.43;100.00;99925.61;272446;1272;23280;-88
2024/02/17 13:11:34;;;;;;;38.60;24.70;;;;;;;7.43;100.00;99930.27;272504;1272;22400;-88
2024/02/17 13:17:36;;;;;;;34.90;23.60;;;;;;;7.43;100.00;99932.30;273409;1267;22344;-89
2024/02/17 13:23:38;;;;;;;42.40;26.90;;;;;;;7.41;100.00;99934.41;273134;1267;22350;-88
2024/02/17 13:29:40;;;;;;;38.20;23.80;;;;;;;7.37;100.00;99937.29;273108;1270;22222;-88
2024/02/17 13:35:43;;;;;;;41.10;25.90;;;;;;;7.37;100.00;99945.72;272997;1267;22409;-88
2024/02/17 13:41:44;;;;;;;49.30;27.40;;;;;;;7.37;100.00;99951.62;273264;1267;22394;-89
2024/02/17 13:47:46;;;;;;;49.10;27.40;;;;;;;7.38;100.00;99951.09;273237;1267;23100;-89
2024/02/17 13:53:48;;;;;;;43.40;26.80;;;;;;;7.41;100.00;99955.27;273065;1269;22574;-88
2024/02/17 13:59:51;;;;;;;45.80;29.00;;;;;;;7.43;100.00;99963.08;270613;1267;22457;-89
2024/02/17 14:05:53;;;;;;;48.20;30.00;;;;;;;7.45;100.00;99964.77;273127;1269;22419;-91
2024/02/17 14:11:55;;;;;;;50.20;30.70;;;;;;;7.46;100.00;99963.80;273152;1269;22248;-88
2024/02/17 14:17:57;;;;;;;53.40;33.00;;;;;;;7.51;100.00;99969.05;271494;1269;23614;-90
2024/02/17 14:23:59;;;;;;;48.20;31.10;;;;;;;7.58;100.00;99977.27;272798;1263;22400;-90
2024/02/17 14:30:12;;;;;;;50.60;32.40;;;;;;;7.65;100.00;99984.17;273009;1269;22358;-89
2024/02/17 14:36:16;;;;;;;51.10;32.00;;;;;;;7.71;100.00;99993.98;273264;1269;22334;-91
2024/02/17 14:42:18;;;;;;;49.90;30.70;;;;;;;7.76;100.00;99998.48;273219;1270;22410;-88
2024/02/17 14:48:20;;;;;;;43.70;27.40;;;;;;;7.77;100.00;100006.11;273272;1269;22336;-88
2024/02/17 14:54:22;;;;;;;39.10;26.30;;;;;;;7.78;100.00;100005.83;272479;1268;22358;-89
2024/02/17 15:00:24;;;;;;;40.50;26.00;;;;;;;7.81;100.00;100015.22;273316;1268;22346;-89
2024/02/17 15:06:28;;;;;;;45.20;29.70;;;;;;;7.83;100.00;100014.35;273089;1269;22427;-91
2024/02/17 15:12:30;;;;;;;43.90;28.90;;;;;;;7.86;100.00;100014.01;272864;1269;22286;-90
2024/02/17 15:18:33;;;;;;;52.80;34.10;;;;;;;7.90;100.00;100015.41;273032;1261;22297;-90
2024/02/17 15:24:35;;;;;;;57.20;34.30;;;;;;;7.93;100.00;100019.27;273030;1269;22415;-90
2024/02/17 15:30:37;;;;;;;73.30;42.00;;;;;;;7.93;100.00;100021.06;273078;1269;22313;-90
2024/02/17 15:36:39;;;;;;;90.70;47.40;;;;;;;7.92;100.00;100035.27;272983;1268;23933;-89
2024/02/17 15:42:41;;;;;;;64.60;36.40;;;;;;;7.91;100.00;100043.64;273033;1269;22234;-90
2024/02/17 15:48:43;;;;;;;57.50;33.40;;;;;;;7.90;100.00;100049.92;272910;1269;22631;-90
2024/02/17 15:54:45;;;;;;;53.70;32.30;;;;;;;7.89;100.00;100062.02;273334;1266;23466;-90
2024/02/17 16:00:48;;;;;;;50.00;29.70;;;;;;;7.86;100.00;100068.23;272038;1266;22579;-90
2024/02/17 16:06:52;;;;;;;51.20;31.30;;;;;;;7.83;100.00;100072.01;271092;1267;22538;-89
2024/02/17 16:12:55;;;;;;;60.70;34.80;;;;;;;7.79;100.00;100080.02;271838;1267;22556;-92
2024/02/17 16:18:56;;;;;;;52.40;32.60;;;;;;;7.74;100.00;100077.16;273288;1267;22374;-89
2024/02/17 16:24:58;;;;;;;59.50;34.80;;;;;;;7.68;100.00;100088.06;273405;1267;22346;-90
2024/02/17 16:31:03;;;;;;;61.90;37.10;;;;;;;7.63;100.00;100101.18;272969;1267;22359;-90
2024/02/17 16:37:12;;;;;;;58.40;34.40;;;;;;;7.60;100.00;100114.48;272981;1261;23550;-89
2024/02/17 16:43:14;;;;;;;53.80;33.30;;;;;;;7.58;100.00;100118.13;272673;1267;22276;-90
2024/02/17 16:49:15;;;;;;;55.60;33.50;;;;;;;7.58;100.00;100124.80;273272;1266;22329;-89
2024/02/17 16:55:19;;;;;;;55.60;33.20;;;;;;;7.57;100.00;100132.95;272896;1269;22232;-90
2024/02/17 17:01:21;;;;;;;58.90;31.20;;;;;;;7.56;100.00;100142.85;272911;1268;22267;-89
2024/02/17 17:07:24;;;;;;;52.10;32.40;;;;;;;7.54;100.00;100154.30;272777;1268;23268;-90
2024/02/17 17:13:26;;;;;;;55.10;35.30;;;;;;;7.52;100.00;100160.31;273407;1274;22228;-88
2024/02/17 17:19:53;;;;;;;57.50;35.20;;;;;;;7.49;100.00;100170.44;273092;1265;22345;-89
2024/02/17 17:25:59;;;;;;;61.80;36.80;;;;;;;7.42;100.00;100175.51;272110;1268;23478;-89
2024/02/17 17:32:17;;;;;;;54.20;33.90;;;;;;;7.36;100.00;100185.62;270889;1268;23749;-89
2024/02/17 17:38:19;;;;;;;59.30;35.90;;;;;;;7.31;100.00;100187.94;272885;1268;22390;-89
2024/02/17 17:44:21;;;;;;;56.60;33.30;;;;;;;7.25;100.00;100195.75;270658;1268;22904;-89
2024/02/17 17:50:23;;;;;;;55.80;32.50;;;;;;;7.22;100.00;100204.08;256063;1267;20002535;-89
2024/02/17 17:56:28;;;;;;;50.70;33.50;;;;;;;7.21;100.00;100205.89;272460;1266;22316;-88
2024/02/17 18:02:32;;;;;;;52.70;33.50;;;;;;;7.20;100.00;100208.73;271617;1267;22142;-89
2024/02/17 18:08:34;;;;;;;55.80;33.60;;;;;;;7.20;100.00;100215.65;272762;1267;22268;-89
2024/02/17 18:14:36;;;;;;;53.70;32.90;;;;;;;7.19;100.00;100225.33;272777;1258;22800;-89
2024/02/17 18:20:38;;;;;;;56.50;34.00;;;;;;;7.18;100.00;100232.69;272588;1267;22567;-89
2024/02/17 18:26:41;;;;;;;58.80;36.60;;;;;;;7.19;100.00;100238.16;271195;1267;22527;-90
2024/02/17 18:32:42;;;;;;;60.30;36.80;;;;;;;7.19;100.00;100241.22;272047;1267;24451;-89
2024/02/17 18:38:45;;;;;;;57.30;36.30;;;;;;;7.17;100.00;100249.99;272776;1267;22204;-89
2024/02/17 18:44:47;;;;;;;57.90;34.90;;;;;;;7.14;100.00;100248.30;273444;1267;23449;-89
2024/02/17 18:50:49;;;;;;;56.20;34.70;;;;;;;7.13;100.00;100250.20;272349;1266;22556;-91
2024/02/17 18:56:51;;;;;;;59.40;36.00;;;;;;;7.10;100.00;100256.28;271725;1266;22223;-91
2024/02/17 19:02:55;;;;;;;55.90;35.30;;;;;;;7.07;100.00;100267.54;273253;1267;22342;-89
2024/02/17 19:08:58;;;;;;;64.90;37.40;;;;;;;7.06;100.00;100276.50;273088;1267;256049;-90
2024/02/17 19:15:00;;;;;;;65.00;38.50;;;;;;;7.05;100.00;100288.52;272530;1267;22994;-90
2024/02/17 19:21:06;;;;;;;82.10;48.20;;;;;;;7.04;100.00;100295.39;272252;1267;22339;-90
2024/02/17 19:27:08;;;;;;;110.10;61.90;;;;;;;7.02;100.00;100307.56;273407;1266;23633;-91
2024/02/17 19:33:12;;;;;;;94.20;55.30;;;;;;;6.98;100.00;100311.61;273311;1266;22427;-91
2024/02/17 19:39:15;;;;;;;58.60;35.50;;;;;;;6.93;100.00;100306.21;273163;1266;22501;-90
2024/02/17 19:45:16;;;;;;;63.80;37.70;;;;;;;6.93;100.00;100301.92;273476;1266;22404;-90
2024/02/17 19:51:18;;;;;;;65.90;39.00;;;;;;;6.93;100.00;100303.55;272321;1267;23695;-91
2024/02/17 19:57:21;;;;;;;70.70;42.60;;;;;;;6.93;100.00;100313.45;272663;1266;22351;-89
2024/02/17 20:03:23;;;;;;;72.50;43.80;;;;;;;6.92;100.00;100315.34;273384;1259;22326;-90
2024/02/17 20:09:25;;;;;;;73.20;44.70;;;;;;;6.89;100.00;100320.88;273250;1266;22202;-90
2024/02/17 20:15:27;;;;;;;78.30;45.50;;;;;;;6.86;100.00;100326.03;273382;1267;22195;-89
2024/02/17 20:21:31;;;;;;;76.10;43.10;;;;;;;6.83;100.00;100327.63;273328;1266;22408;-89
2024/02/17 20:27:33;;;;;;;80.30;42.20;;;;;;;6.80;100.00;100331.54;273307;1266;22245;-90
2024/02/17 20:33:35;;;;;;;67.50;38.50;;;;;;;6.76;100.00;100333.32;273356;1267;22883;-90
2024/02/17 20:39:37;;;;;;;58.10;34.20;;;;;;;6.74;100.00;100338.23;273382;1256;22183;-89
2024/02/17 20:45:39;;;;;;;48.80;28.80;;;;;;;6.74;100.00;100343.38;273355;1266;22985;-89
2024/02/17 20:51:42;;;;;;;52.80;30.20;;;;;;;6.73;100.00;100346.66;273436;1266;23439;-90
2024/02/17 20:57:44;;;;;;;48.50;28.60;;;;;;;6.71;100.00;100353.58;273421;1262;22354;-89
2024/02/17 21:03:46;;;;;;;47.20;26.90;;;;;;;6.70;100.00;100356.45;273352;1267;22175;-90
2024/02/17 21:09:53;;;;;;;52.80;28.30;;;;;;;6.69;100.00;100363.16;273326;1251;23378;-89
2024/02/17 21:15:55;;;;;;;48.00;27.20;;;;;;;6.69;100.00;100368.33;273209;1266;23651;-90
2024/02/17 21:21:57;;;;;;;51.40;29.60;;;;;;;6.70;100.00;100374.95;273447;1266;23183;-92
2024/02/17 21:28:00;;;;;;;56.50;28.90;;;;;;;6.69;100.00;100387.35;273448;1266;22399;-90
2024/02/17 21:34:03;;;;;;;48.00;28.30;;;;;;;6.70;100.00;100397.10;273324;1267;22236;-91
2024/02/17 21:40:05;;;;;;;44.20;26.20;;;;;;;6.72;100.00;100403.62;273529;1267;22435;-90
2024/02/17 21:46:08;;;;;;;40.50;24.20;;;;;;;6.74;100.00;100406.83;273220;1266;23249;-91
2024/02/17 21:52:11;;;;;;;36.20;22.40;;;;;;;6.76;100.00;100415.51;273113;1267;22413;-89
2024/02/17 21:58:16;;;;;;;26.90;16.40;;;;;;;6.73;100.00;100426.34;273274;1265;22395;-92
2024/02/17 22:04:18;;;;;;;15.50;7.00;;;;;;;6.68;100.00;100428.61;273627;1267;22183;-90
2024/02/17 22:10:22;;;;;;;9.60;5.50;;;;;;;6.59;100.00;100437.58;273394;1266;23067;-91
2024/02/17 22:16:24;;;;;;;9.20;4.60;;;;;;;6.46;100.00;100453.12;273553;1267;22926;-89
2024/02/17 22:22:26;;;;;;;9.80;4.00;;;;;;;6.35;100.00;100460.23;273509;1267;22212;-90
2024/02/17 22:28:29;;;;;;;8.50;4.30;;;;;;;6.29;100.00;100466.34;273304;1267;22728;-91
2024/02/17 22:34:31;;;;;;;7.10;4.10;;;;;;;6.22;100.00;100476.89;273088;1266;23753;-91
2024/02/17 22:40:33;;;;;;;7.50;3.70;;;;;;;6.13;100.00;100489.23;271973;1267;22312;-89
2024/02/17 22:46:35;;;;;;;6.90;3.80;;;;;;;6.02;100.00;100495.02;271820;1266;22228;-89
2024/02/17 22:52:37;;;;;;;7.70;3.60;;;;;;;5.86;100.00;100500.66;273414;1267;22515;-88
2024/02/17 22:58:39;;;;;;;5.80;2.90;;;;;;;5.73;100.00;100510.51;273325;1266;22478;-88
2024/02/17 23:04:44;;;;;;;5.20;3.30;;;;;;;5.68;100.00;100507.05;273399;1266;23096;-89
2024/02/17 23:11:14;;;;;;;8.00;3.30;;;;;;;5.57;100.00;100510.93;272850;1266;23345;-89
2024/02/17 23:17:19;;;;;;;7.30;3.50;;;;;;;5.41;100.00;100518.50;272065;1266;22404;-90
2024/02/17 23:23:24;;;;;;;7.40;3.00;;;;;;;5.23;100.00;100522.09;272047;1267;22345;-88
2024/02/17 23:29:26;;;;;;;4.80;2.70;;;;;;;5.09;100.00;100520.05;273487;1267;22319;-89
2024/02/17 23:35:31;;;;;;;7.10;3.40;;;;;;;5.01;100.00;100527.86;273481;1261;22389;-91
2024/02/17 23:41:49;;;;;;;11.70;3.70;;;;;;;4.90;100.00;100531.27;273549;1266;23281;-89
2024/02/17 23:48:15;;;;;;;7.50;3.50;;;;;;;4.83;100.00;100535.41;273534;1267;22478;-89
2024/02/17 23:54:20;;;;;;;8.20;4.60;;;;;;;4.75;100.00;100536.11;273990;1269;22400;-90
